sensor_id;sensor_type;location;lat;lon;timestamp;pressure;altitude;pressure_sealevel;temperature;humidity
13407;BME280;6774;48.208;10.766;2023-03-31T00:01:07;95143.13;;;6.39;90.78
13407;BME280;6774;48.208;10.766;2023-03-31T00:03:35;95140.81;;;6.44;91.09
13407;BME280;6774;48.208;10.766;2023-03-31T00:06:06;95144.09;;;6.46;91.77
13407;BME280;6774;48.208;10.766;2023-03-31T00:08:33;95133.91;;;6.51;92.17
13407;BME280;6774;48.208;10.766;2023-03-31T00:11:03;95120.78;;;6.60;91.62
13407;BME280;6774;48.208;10.766;2023-03-31T00:13:33;95122.41;;;6.61;91.44
13407;BME280;6774;48.208;10.766;2023-03-31T00:16:03;95121.69;;;6.67;91.15
13407;BME280;6774;48.208;10.766;2023-03-31T00:18:31;95125.63;;;6.71;90.84
13407;BME280;6774;48.208;10.766;2023-03-31T00:21:07;95115.00;;;6.64;91.34
13407;BME280;6774;48.208;10.766;2023-03-31T00:23:35;95114.44;;;6.77;91.24
13407;BME280;6774;48.208;10.766;2023-03-31T00:26:02;95118.75;;;6.70;91.79
13407;BME280;6774;48.208;10.766;2023-03-31T00:28:30;95113.13;;;6.73;91.94
13407;BME280;6774;48.208;10.766;2023-03-31T00:30:59;95097.31;;;6.89;90.88
13407;BME280;6774;48.208;10.766;2023-03-31T00:33:28;95091.13;;;6.82;91.88
13407;BME280;6774;48.208;10.766;2023-03-31T00:35:56;95090.63;;;6.87;91.42
13407;BME280;6774;48.208;10.766;2023-03-31T00:38:29;95087.19;;;6.86;91.38
13407;BME280;6774;48.208;10.766;2023-03-31T00:40:57;95082.03;;;6.93;92.05
13407;BME280;6774;48.208;10.766;2023-03-31T00:43:30;95081.56;;;6.89;91.42
13407;BME280;6774;48.208;10.766;2023-03-31T00:46:12;95073.06;;;6.87;90.91
13407;BME280;6774;48.208;10.766;2023-03-31T00:48:47;95069.78;;;6.85;91.38
13407;BME280;6774;48.208;10.766;2023-03-31T00:51:17;95066.59;;;6.75;91.07
13407;BME280;6774;48.208;10.766;2023-03-31T00:53:49;95066.88;;;6.80;91.89
13407;BME280;6774;48.208;10.766;2023-03-31T00:56:21;95050.09;;;6.89;91.94
13407;BME280;6774;48.208;10.766;2023-03-31T00:58:49;95044.50;;;6.92;92.82
13407;BME280;6774;48.208;10.766;2023-03-31T01:01:18;95044.06;;;7.03;92.26
13407;BME280;6774;48.208;10.766;2023-03-31T01:03:50;95036.50;;;7.08;92.13
13407;BME280;6774;48.208;10.766;2023-03-31T01:06:18;95036.19;;;7.03;91.59
13407;BME280;6774;48.208;10.766;2023-03-31T01:08:49;95042.50;;;6.94;91.04
13407;BME280;6774;48.208;10.766;2023-03-31T01:11:21;95031.78;;;6.81;90.59
13407;BME280;6774;48.208;10.766;2023-03-31T01:13:52;95024.16;;;6.71;90.51
13407;BME280;6774;48.208;10.766;2023-03-31T01:16:22;95015.75;;;6.76;90.57
13407;BME280;6774;48.208;10.766;2023-03-31T01:18:50;95015.78;;;6.53;90.68
13407;BME280;6774;48.208;10.766;2023-03-31T01:21:39;95017.72;;;6.59;90.47
13407;BME280;6774;48.208;10.766;2023-03-31T01:24:39;95022.16;;;6.59;90.10
13407;BME280;6774;48.208;10.766;2023-03-31T01:27:28;95008.50;;;6.63;90.22
13407;BME280;6774;48.208;10.766;2023-03-31T01:30:27;95007.09;;;6.52;91.67
13407;BME280;6774;48.208;10.766;2023-03-31T01:36:20;94994.44;;;6.79;91.79
13407;BME280;6774;48.208;10.766;2023-03-31T01:41:58;94991.91;;;6.85;90.62
13407;BME280;6774;48.208;10.766;2023-03-31T01:44:35;94992.41;;;6.89;90.63
13407;BME280;6774;48.208;10.766;2023-03-31T01:47:10;94979.91;;;6.91;90.67
13407;BME280;6774;48.208;10.766;2023-03-31T01:49:49;94968.47;;;7.07;90.72
13407;BME280;6774;48.208;10.766;2023-03-31T01:52:24;94978.22;;;7.13;90.82
13407;BME280;6774;48.208;10.766;2023-03-31T01:54:57;94973.88;;;7.20;90.89
13407;BME280;6774;48.208;10.766;2023-03-31T01:57:32;94984.38;;;7.20;90.68
13407;BME280;6774;48.208;10.766;2023-03-31T02:00:03;94972.09;;;7.06;91.29
13407;BME280;6774;48.208;10.766;2023-03-31T02:02:44;94967.19;;;7.18;90.95
13407;BME280;6774;48.208;10.766;2023-03-31T02:05:17;94971.81;;;7.16;90.95
13407;BME280;6774;48.208;10.766;2023-03-31T02:07:49;94967.19;;;7.18;91.03
13407;BME280;6774;48.208;10.766;2023-03-31T02:10:20;94965.22;;;7.20;90.86
13407;BME280;6774;48.208;10.766;2023-03-31T02:12:52;94962.25;;;7.23;91.04
13407;BME280;6774;48.208;10.766;2023-03-31T02:15:25;94960.31;;;7.31;90.90
13407;BME280;6774;48.208;10.766;2023-03-31T02:17:56;94959.16;;;7.34;90.86
13407;BME280;6774;48.208;10.766;2023-03-31T02:20:26;94951.19;;;7.42;91.09
13407;BME280;6774;48.208;10.766;2023-03-31T02:22:58;94953.44;;;7.45;91.48
13407;BME280;6774;48.208;10.766;2023-03-31T02:25:31;94953.81;;;7.42;92.03
13407;BME280;6774;48.208;10.766;2023-03-31T02:28:07;94952.25;;;7.62;91.50
13407;BME280;6774;48.208;10.766;2023-03-31T02:30:41;94951.16;;;7.72;91.49
13407;BME280;6774;48.208;10.766;2023-03-31T02:33:12;94963.41;;;7.64;91.34
13407;BME280;6774;48.208;10.766;2023-03-31T02:35:41;94965.00;;;7.80;91.38
13407;BME280;6774;48.208;10.766;2023-03-31T02:38:09;94976.91;;;7.61;92.55
13407;BME280;6774;48.208;10.766;2023-03-31T02:40:37;94972.19;;;7.72;93.48
13407;BME280;6774;48.208;10.766;2023-03-31T02:43:06;94966.88;;;8.01;92.39
13407;BME280;6774;48.208;10.766;2023-03-31T02:45:44;94959.78;;;8.02;93.25
13407;BME280;6774;48.208;10.766;2023-03-31T02:48:17;94943.72;;;8.11;92.81
13407;BME280;6774;48.208;10.766;2023-03-31T02:54:04;94965.75;;;8.46;92.14
13407;BME280;6774;48.208;10.766;2023-03-31T02:57:03;94988.34;;;8.41;91.96
13407;BME280;6774;48.208;10.766;2023-03-31T02:59:48;94996.69;;;8.30;92.64
13407;BME280;6774;48.208;10.766;2023-03-31T03:02:22;94991.97;;;8.40;92.74
13407;BME280;6774;48.208;10.766;2023-03-31T03:05:04;94984.47;;;8.58;93.31
13407;BME280;6774;48.208;10.766;2023-03-31T03:07:44;94973.59;;;8.61;94.55
13407;BME280;6774;48.208;10.766;2023-03-31T03:10:17;94965.59;;;8.69;93.70
13407;BME280;6774;48.208;10.766;2023-03-31T03:12:54;94968.59;;;8.94;93.26
13407;BME280;6774;48.208;10.766;2023-03-31T03:15:29;94954.50;;;9.02;93.12
13407;BME280;6774;48.208;10.766;2023-03-31T03:18:00;94957.06;;;9.23;92.84
13407;BME280;6774;48.208;10.766;2023-03-31T03:20:29;94936.09;;;9.36;92.09
13407;BME280;6774;48.208;10.766;2023-03-31T03:22:59;94930.84;;;9.36;92.03
13407;BME280;6774;48.208;10.766;2023-03-31T03:25:27;94929.22;;;9.35;91.57
13407;BME280;6774;48.208;10.766;2023-03-31T03:27:56;94918.69;;;9.35;91.89
13407;BME280;6774;48.208;10.766;2023-03-31T03:30:23;94913.00;;;9.38;91.82
13407;BME280;6774;48.208;10.766;2023-03-31T03:32:52;94908.59;;;9.46;91.68
13407;BME280;6774;48.208;10.766;2023-03-31T03:35:21;94903.16;;;9.54;91.56
13407;BME280;6774;48.208;10.766;2023-03-31T03:37:49;94901.75;;;9.58;91.78
13407;BME280;6774;48.208;10.766;2023-03-31T03:40:17;94901.78;;;9.64;92.05
13407;BME280;6774;48.208;10.766;2023-03-31T03:42:44;94896.56;;;9.71;91.58
13407;BME280;6774;48.208;10.766;2023-03-31T03:45:12;94891.28;;;9.71;91.46
13407;BME280;6774;48.208;10.766;2023-03-31T03:47:39;94873.84;;;9.77;91.40
13407;BME280;6774;48.208;10.766;2023-03-31T03:50:09;94860.88;;;9.75;91.11
13407;BME280;6774;48.208;10.766;2023-03-31T03:52:41;94866.09;;;9.55;91.74
13407;BME280;6774;48.208;10.766;2023-03-31T03:55:09;94845.88;;;9.69;91.30
13407;BME280;6774;48.208;10.766;2023-03-31T03:57:37;94853.78;;;9.69;90.97
13407;BME280;6774;48.208;10.766;2023-03-31T04:00:06;94841.19;;;9.58;91.08
13407;BME280;6774;48.208;10.766;2023-03-31T04:02:37;94834.88;;;9.46;91.68
13407;BME280;6774;48.208;10.766;2023-03-31T04:05:05;94831.94;;;9.27;92.67
13407;BME280;6774;48.208;10.766;2023-03-31T04:07:34;94822.47;;;9.39;92.07
13407;BME280;6774;48.208;10.766;2023-03-31T04:10:02;94818.00;;;9.33;91.85
13407;BME280;6774;48.208;10.766;2023-03-31T04:12:32;94805.66;;;9.40;92.21
13407;BME280;6774;48.208;10.766;2023-03-31T04:15:00;94801.22;;;9.48;91.90
13407;BME280;6774;48.208;10.766;2023-03-31T04:17:28;94789.09;;;9.47;91.86
13407;BME280;6774;48.208;10.766;2023-03-31T04:20:00;94767.03;;;9.54;92.04
13407;BME280;6774;48.208;10.766;2023-03-31T04:22:31;94741.69;;;9.60;91.31
13407;BME280;6774;48.208;10.766;2023-03-31T04:25:03;94742.31;;;9.62;91.38
13407;BME280;6774;48.208;10.766;2023-03-31T04:27:40;94741.09;;;9.58;91.49
13407;BME280;6774;48.208;10.766;2023-03-31T04:30:13;94739.66;;;9.49;91.83
13407;BME280;6774;48.208;10.766;2023-03-31T04:32:49;94737.22;;;9.47;92.67
13407;BME280;6774;48.208;10.766;2023-03-31T04:35:17;94734.19;;;9.57;92.62
13407;BME280;6774;48.208;10.766;2023-03-31T04:37:47;94725.88;;;9.60;92.24
13407;BME280;6774;48.208;10.766;2023-03-31T04:40:16;94719.00;;;9.59;92.42
13407;BME280;6774;48.208;10.766;2023-03-31T04:42:44;94710.09;;;9.60;92.39
13407;BME280;6774;48.208;10.766;2023-03-31T04:45:12;94705.84;;;9.59;92.43
13407;BME280;6774;48.208;10.766;2023-03-31T04:47:39;94706.03;;;9.51;92.80
13407;BME280;6774;48.208;10.766;2023-03-31T04:50:08;94693.28;;;9.54;92.78
13407;BME280;6774;48.208;10.766;2023-03-31T04:52:41;94686.38;;;9.60;92.60
13407;BME280;6774;48.208;10.766;2023-03-31T04:55:09;94677.06;;;9.64;92.43
13407;BME280;6774;48.208;10.766;2023-03-31T04:57:38;94680.91;;;9.68;91.94
13407;BME280;6774;48.208;10.766;2023-03-31T05:00:08;94670.78;;;9.65;91.53
13407;BME280;6774;48.208;10.766;2023-03-31T05:02:36;94671.59;;;9.65;91.88
13407;BME280;6774;48.208;10.766;2023-03-31T05:05:04;94653.16;;;9.65;92.09
13407;BME280;6774;48.208;10.766;2023-03-31T05:07:32;94651.75;;;9.69;91.85
13407;BME280;6774;48.208;10.766;2023-03-31T05:10:00;94638.75;;;9.68;92.16
13407;BME280;6774;48.208;10.766;2023-03-31T05:12:27;94628.66;;;9.72;91.53
13407;BME280;6774;48.208;10.766;2023-03-31T05:14:56;94605.53;;;9.74;91.65
13407;BME280;6774;48.208;10.766;2023-03-31T05:17:24;94596.81;;;9.73;91.05
13407;BME280;6774;48.208;10.766;2023-03-31T05:19:52;94581.84;;;9.74;91.14
13407;BME280;6774;48.208;10.766;2023-03-31T05:22:20;94573.53;;;9.70;90.95
13407;BME280;6774;48.208;10.766;2023-03-31T05:24:47;94563.59;;;9.72;90.69
13407;BME280;6774;48.208;10.766;2023-03-31T05:27:15;94563.00;;;9.70;91.17
13407;BME280;6774;48.208;10.766;2023-03-31T05:29:43;94557.72;;;9.70;91.08
13407;BME280;6774;48.208;10.766;2023-03-31T05:32:12;94553.66;;;9.74;91.36
13407;BME280;6774;48.208;10.766;2023-03-31T05:34:40;94544.94;;;9.80;91.22
13407;BME280;6774;48.208;10.766;2023-03-31T05:37:08;94534.78;;;9.84;90.93
13407;BME280;6774;48.208;10.766;2023-03-31T05:39:36;94535.19;;;9.87;90.56
13407;BME280;6774;48.208;10.766;2023-03-31T05:42:04;94524.63;;;9.94;90.65
13407;BME280;6774;48.208;10.766;2023-03-31T05:44:32;94519.13;;;9.95;90.37
13407;BME280;6774;48.208;10.766;2023-03-31T05:47:01;94510.22;;;9.96;90.38
13407;BME280;6774;48.208;10.766;2023-03-31T05:49:30;94509.00;;;9.99;90.53
13407;BME280;6774;48.208;10.766;2023-03-31T05:51:58;94493.22;;;9.92;90.41
13407;BME280;6774;48.208;10.766;2023-03-31T05:54:26;94483.84;;;9.96;90.76
13407;BME280;6774;48.208;10.766;2023-03-31T05:56:53;94485.50;;;9.97;90.62
13407;BME280;6774;48.208;10.766;2023-03-31T05:59:21;94488.13;;;9.97;90.85
13407;BME280;6774;48.208;10.766;2023-03-31T06:01:49;94499.06;;;9.94;91.18
13407;BME280;6774;48.208;10.766;2023-03-31T06:04:17;94497.03;;;9.96;91.26
13407;BME280;6774;48.208;10.766;2023-03-31T06:06:46;94500.88;;;10.01;91.88
13407;BME280;6774;48.208;10.766;2023-03-31T06:09:15;94494.00;;;10.00;91.57
13407;BME280;6774;48.208;10.766;2023-03-31T06:11:44;94497.81;;;10.04;91.60
13407;BME280;6774;48.208;10.766;2023-03-31T06:14:14;94501.47;;;10.03;91.68
13407;BME280;6774;48.208;10.766;2023-03-31T06:16:42;94489.91;;;10.04;91.84
13407;BME280;6774;48.208;10.766;2023-03-31T06:19:10;94496.41;;;10.08;91.43
13407;BME280;6774;48.208;10.766;2023-03-31T06:21:37;94500.66;;;10.09;91.71
13407;BME280;6774;48.208;10.766;2023-03-31T06:24:07;94515.06;;;10.06;91.84
13407;BME280;6774;48.208;10.766;2023-03-31T06:26:35;94525.78;;;10.05;91.46
13407;BME280;6774;48.208;10.766;2023-03-31T06:29:02;94517.72;;;10.06;91.63
13407;BME280;6774;48.208;10.766;2023-03-31T06:31:30;94524.78;;;10.06;91.75
13407;BME280;6774;48.208;10.766;2023-03-31T06:33:58;94527.25;;;10.01;91.76
13407;BME280;6774;48.208;10.766;2023-03-31T06:36:26;94528.06;;;10.01;91.45
13407;BME280;6774;48.208;10.766;2023-03-31T06:38:54;94527.25;;;10.01;91.36
13407;BME280;6774;48.208;10.766;2023-03-31T06:41:23;94549.34;;;10.00;91.95
13407;BME280;6774;48.208;10.766;2023-03-31T06:43:51;94546.28;;;10.03;91.68
13407;BME280;6774;48.208;10.766;2023-03-31T06:46:19;94545.69;;;10.01;91.31
13407;BME280;6774;48.208;10.766;2023-03-31T06:48:47;94571.44;;;9.98;91.35
13407;BME280;6774;48.208;10.766;2023-03-31T06:51:15;94541.03;;;10.03;91.55
13407;BME280;6774;48.208;10.766;2023-03-31T06:53:43;94578.38;;;9.66;92.19
13407;BME280;6774;48.208;10.766;2023-03-31T06:56:11;94574.13;;;9.72;93.12
13407;BME280;6774;48.208;10.766;2023-03-31T06:58:40;94574.72;;;9.74;91.87
13407;BME280;6774;48.208;10.766;2023-03-31T07:01:07;94607.97;;;9.75;91.82
13407;BME280;6774;48.208;10.766;2023-03-31T07:03:37;94620.75;;;9.72;92.19
13407;BME280;6774;48.208;10.766;2023-03-31T07:06:05;94586.47;;;9.78;92.09
13407;BME280;6774;48.208;10.766;2023-03-31T07:08:32;94560.75;;;9.80;91.94
13407;BME280;6774;48.208;10.766;2023-03-31T07:11:01;94539.88;;;9.79;92.01
13407;BME280;6774;48.208;10.766;2023-03-31T07:13:29;94525.25;;;9.89;92.29
13407;BME280;6774;48.208;10.766;2023-03-31T07:15:58;94518.34;;;9.95;92.10
13407;BME280;6774;48.208;10.766;2023-03-31T07:18:26;94501.69;;;10.08;92.32
13407;BME280;6774;48.208;10.766;2023-03-31T07:21:00;94484.81;;;10.22;92.27
13407;BME280;6774;48.208;10.766;2023-03-31T07:23:28;94471.97;;;10.32;92.16
13407;BME280;6774;48.208;10.766;2023-03-31T07:25:55;94467.06;;;10.42;92.08
13407;BME280;6774;48.208;10.766;2023-03-31T07:28:28;94461.25;;;10.59;91.73
13407;BME280;6774;48.208;10.766;2023-03-31T07:30:55;94456.13;;;10.70;91.30
13407;BME280;6774;48.208;10.766;2023-03-31T07:33:24;94452.84;;;10.75;90.75
13407;BME280;6774;48.208;10.766;2023-03-31T07:35:52;94453.44;;;10.77;90.73
13407;BME280;6774;48.208;10.766;2023-03-31T07:38:37;94440.41;;;10.82;90.44
13407;BME280;6774;48.208;10.766;2023-03-31T07:41:05;94439.97;;;10.85;90.12
13407;BME280;6774;48.208;10.766;2023-03-31T07:43:36;94433.84;;;10.91;89.94
13407;BME280;6774;48.208;10.766;2023-03-31T07:46:04;94415.50;;;10.96;89.32
13407;BME280;6774;48.208;10.766;2023-03-31T07:48:35;94424.34;;;11.08;89.37
13407;BME280;6774;48.208;10.766;2023-03-31T07:51:03;94418.19;;;11.15;89.48
13407;BME280;6774;48.208;10.766;2023-03-31T07:53:35;94404.88;;;11.28;89.17
13407;BME280;6774;48.208;10.766;2023-03-31T07:56:03;94399.53;;;11.34;88.41
13407;BME280;6774;48.208;10.766;2023-03-31T07:58:31;94387.25;;;11.40;87.94
13407;BME280;6774;48.208;10.766;2023-03-31T08:00:59;94389.53;;;11.36;87.70
13407;BME280;6774;48.208;10.766;2023-03-31T08:03:27;94404.72;;;11.41;86.87
13407;BME280;6774;48.208;10.766;2023-03-31T08:05:59;94402.09;;;11.41;86.66
13407;BME280;6774;48.208;10.766;2023-03-31T08:08:27;94410.44;;;11.38;86.78
13407;BME280;6774;48.208;10.766;2023-03-31T08:10:54;94422.63;;;11.57;86.19
13407;BME280;6774;48.208;10.766;2023-03-31T08:13:22;94442.97;;;11.57;86.19
13407;BME280;6774;48.208;10.766;2023-03-31T08:15:50;94469.69;;;11.67;85.23
13407;BME280;6774;48.208;10.766;2023-03-31T08:18:18;94466.91;;;11.44;84.73
13407;BME280;6774;48.208;10.766;2023-03-31T08:20:45;94501.78;;;11.71;83.83
13407;BME280;6774;48.208;10.766;2023-03-31T08:23:16;94501.03;;;11.63;83.97
13407;BME280;6774;48.208;10.766;2023-03-31T08:25:44;94523.72;;;11.28;83.00
13407;BME280;6774;48.208;10.766;2023-03-31T08:28:12;94562.41;;;11.16;83.99
13407;BME280;6774;48.208;10.766;2023-03-31T08:30:40;94582.91;;;10.44;88.01
13407;BME280;6774;48.208;10.766;2023-03-31T08:33:08;94524.00;;;10.57;89.90
13407;BME280;6774;48.208;10.766;2023-03-31T08:35:37;94511.72;;;10.69;90.80
13407;BME280;6774;48.208;10.766;2023-03-31T08:38:05;94491.19;;;10.77;90.73
13407;BME280;6774;48.208;10.766;2023-03-31T08:40:34;94482.69;;;11.00;89.29
13407;BME280;6774;48.208;10.766;2023-03-31T08:43:05;94481.00;;;11.06;88.76
13407;BME280;6774;48.208;10.766;2023-03-31T08:45:36;94479.63;;;11.03;88.94
13407;BME280;6774;48.208;10.766;2023-03-31T08:48:10;94481.69;;;11.01;87.44
13407;BME280;6774;48.208;10.766;2023-03-31T08:50:44;94482.13;;;10.98;85.86
13407;BME280;6774;48.208;10.766;2023-03-31T08:53:20;94480.59;;;11.34;86.20
13407;BME280;6774;48.208;10.766;2023-03-31T08:55:52;94472.94;;;11.87;83.98
13407;BME280;6774;48.208;10.766;2023-03-31T08:58:31;94476.81;;;12.21;83.57
13407;BME280;6774;48.208;10.766;2023-03-31T09:01:06;94456.19;;;12.42;82.93
13407;BME280;6774;48.208;10.766;2023-03-31T09:03:42;94460.72;;;12.83;80.16
13407;BME280;6774;48.208;10.766;2023-03-31T09:06:16;94464.03;;;13.20;76.76
13407;BME280;6774;48.208;10.766;2023-03-31T09:08:47;94461.69;;;13.12;79.81
13407;BME280;6774;48.208;10.766;2023-03-31T09:11:24;94452.88;;;12.88;80.04
13407;BME280;6774;48.208;10.766;2023-03-31T09:14:05;94456.84;;;13.09;78.41
13407;BME280;6774;48.208;10.766;2023-03-31T09:16:40;94433.28;;;12.77;79.08
13407;BME280;6774;48.208;10.766;2023-03-31T09:19:14;94433.69;;;12.51;78.62
13407;BME280;6774;48.208;10.766;2023-03-31T09:21:46;94430.22;;;12.92;77.95
13407;BME280;6774;48.208;10.766;2023-03-31T09:24:17;94425.50;;;13.06;78.88
13407;BME280;6774;48.208;10.766;2023-03-31T09:26:50;94442.94;;;13.49;77.94
13407;BME280;6774;48.208;10.766;2023-03-31T09:29:21;94422.75;;;13.13;77.05
13407;BME280;6774;48.208;10.766;2023-03-31T09:31:52;94430.22;;;13.86;76.66
13407;BME280;6774;48.208;10.766;2023-03-31T09:34:24;94428.94;;;13.88;75.11
13407;BME280;6774;48.208;10.766;2023-03-31T09:36:53;94437.34;;;13.97;74.18
13407;BME280;6774;48.208;10.766;2023-03-31T09:39:21;94435.69;;;14.08;73.25
13407;BME280;6774;48.208;10.766;2023-03-31T09:41:51;94435.94;;;14.06;73.90
13407;BME280;6774;48.208;10.766;2023-03-31T09:44:26;94425.88;;;14.48;71.69
13407;BME280;6774;48.208;10.766;2023-03-31T09:46:54;94413.28;;;14.56;71.36
13407;BME280;6774;48.208;10.766;2023-03-31T09:49:26;94429.13;;;13.99;72.27
13407;BME280;6774;48.208;10.766;2023-03-31T09:52:02;94418.53;;;13.99;72.13
13407;BME280;6774;48.208;10.766;2023-03-31T09:54:35;94401.19;;;14.19;71.50
13407;BME280;6774;48.208;10.766;2023-03-31T09:57:13;94395.56;;;14.33;70.62
13407;BME280;6774;48.208;10.766;2023-03-31T09:59:41;94379.50;;;14.68;70.45
13407;BME280;6774;48.208;10.766;2023-03-31T10:02:24;94377.88;;;14.67;69.53
13407;BME280;6774;48.208;10.766;2023-03-31T10:04:55;94374.19;;;15.01;70.45
13407;BME280;6774;48.208;10.766;2023-03-31T10:07:23;94355.41;;;15.08;70.10
13407;BME280;6774;48.208;10.766;2023-03-31T10:09:53;94346.72;;;15.13;68.90
13407;BME280;6774;48.208;10.766;2023-03-31T10:12:25;94395.50;;;15.23;69.73
13407;BME280;6774;48.208;10.766;2023-03-31T10:15:10;94363.72;;;15.12;66.37
13407;BME280;6774;48.208;10.766;2023-03-31T10:17:40;94344.22;;;15.06;67.88
13407;BME280;6774;48.208;10.766;2023-03-31T10:20:30;94356.16;;;15.03;68.46
13407;BME280;6774;48.208;10.766;2023-03-31T10:23:02;94342.31;;;15.18;68.57
13407;BME280;6774;48.208;10.766;2023-03-31T10:25:33;94327.19;;;15.62;66.11
13407;BME280;6774;48.208;10.766;2023-03-31T10:28:03;94328.84;;;15.08;66.56
13407;BME280;6774;48.208;10.766;2023-03-31T10:30:33;94331.53;;;15.69;68.07
13407;BME280;6774;48.208;10.766;2023-03-31T10:33:12;94315.06;;;15.72;65.04
13407;BME280;6774;48.208;10.766;2023-03-31T10:35:49;94292.66;;;15.24;67.57
13407;BME280;6774;48.208;10.766;2023-03-31T10:38:23;94311.53;;;15.44;67.05
13407;BME280;6774;48.208;10.766;2023-03-31T10:40:54;94319.88;;;15.31;67.38
13407;BME280;6774;48.208;10.766;2023-03-31T10:43:27;94290.31;;;14.38;65.88
13407;BME280;6774;48.208;10.766;2023-03-31T10:45:56;94309.25;;;14.13;66.41
13407;BME280;6774;48.208;10.766;2023-03-31T10:48:27;94318.91;;;14.03;64.84
13407;BME280;6774;48.208;10.766;2023-03-31T10:50:59;94293.03;;;14.10;66.90
13407;BME280;6774;48.208;10.766;2023-03-31T10:53:26;94339.31;;;13.62;67.66
13407;BME280;6774;48.208;10.766;2023-03-31T10:56:04;94320.06;;;13.26;71.10
13407;BME280;6774;48.208;10.766;2023-03-31T10:58:46;94353.34;;;12.99;75.18
13407;BME280;6774;48.208;10.766;2023-03-31T11:01:39;94307.84;;;12.55;71.09
13407;BME280;6774;48.208;10.766;2023-03-31T11:04:40;94300.47;;;12.57;72.16
13407;BME280;6774;48.208;10.766;2023-03-31T11:07:19;94311.16;;;12.97;75.46
13407;BME280;6774;48.208;10.766;2023-03-31T11:10:06;94305.84;;;13.32;71.61
13407;BME280;6774;48.208;10.766;2023-03-31T11:12:40;94283.81;;;13.44;73.43
13407;BME280;6774;48.208;10.766;2023-03-31T11:15:21;94287.53;;;13.71;71.75
13407;BME280;6774;48.208;10.766;2023-03-31T11:18:05;94302.50;;;13.49;68.67
13407;BME280;6774;48.208;10.766;2023-03-31T11:20:46;94312.34;;;13.65;69.37
13407;BME280;6774;48.208;10.766;2023-03-31T11:23:22;94280.81;;;13.52;71.38
13407;BME280;6774;48.208;10.766;2023-03-31T11:25:58;94266.59;;;13.29;70.77
13407;BME280;6774;48.208;10.766;2023-03-31T11:28:41;94249.03;;;13.00;69.69
13407;BME280;6774;48.208;10.766;2023-03-31T11:31:24;94258.81;;;12.88;67.89
13407;BME280;6774;48.208;10.766;2023-03-31T11:34:13;94243.50;;;13.70;68.99
13407;BME280;6774;48.208;10.766;2023-03-31T11:36:57;94247.84;;;14.38;65.26
13407;BME280;6774;48.208;10.766;2023-03-31T11:39:38;94245.09;;;14.16;63.10
13407;BME280;6774;48.208;10.766;2023-03-31T11:42:14;94235.09;;;13.73;65.47
13407;BME280;6774;48.208;10.766;2023-03-31T11:44:46;94219.22;;;14.07;66.65
13407;BME280;6774;48.208;10.766;2023-03-31T11:47:21;94230.34;;;14.37;66.87
13407;BME280;6774;48.208;10.766;2023-03-31T11:49:54;94232.84;;;14.27;66.54
13407;BME280;6774;48.208;10.766;2023-03-31T11:52:27;94239.81;;;14.33;66.12
13407;BME280;6774;48.208;10.766;2023-03-31T11:54:59;94239.97;;;14.43;65.81
13407;BME280;6774;48.208;10.766;2023-03-31T11:57:30;94241.50;;;14.39;67.65
13407;BME280;6774;48.208;10.766;2023-03-31T12:00:05;94235.00;;;14.64;65.98
13407;BME280;6774;48.208;10.766;2023-03-31T12:02:45;94218.88;;;15.09;65.44
13407;BME280;6774;48.208;10.766;2023-03-31T12:05:16;94216.41;;;15.46;66.26
13407;BME280;6774;48.208;10.766;2023-03-31T12:07:47;94217.63;;;15.60;67.99
13407;BME280;6774;48.208;10.766;2023-03-31T12:10:19;94208.13;;;15.64;63.66
13407;BME280;6774;48.208;10.766;2023-03-31T12:12:51;94214.09;;;14.89;63.92
13407;BME280;6774;48.208;10.766;2023-03-31T12:15:22;94204.78;;;14.48;66.04
13407;BME280;6774;48.208;10.766;2023-03-31T12:17:58;94214.06;;;14.34;64.61
13407;BME280;6774;48.208;10.766;2023-03-31T12:20:30;94207.66;;;14.13;65.91
13407;BME280;6774;48.208;10.766;2023-03-31T12:23:00;94216.16;;;13.98;66.53
13407;BME280;6774;48.208;10.766;2023-03-31T12:25:39;94221.91;;;13.78;67.10
13407;BME280;6774;48.208;10.766;2023-03-31T12:28:09;94232.88;;;13.82;66.79
13407;BME280;6774;48.208;10.766;2023-03-31T12:30:38;94232.25;;;13.91;69.60
13407;BME280;6774;48.208;10.766;2023-03-31T12:33:16;94223.38;;;13.86;70.58
13407;BME280;6774;48.208;10.766;2023-03-31T12:35:57;94219.66;;;13.70;69.73
13407;BME280;6774;48.208;10.766;2023-03-31T12:38:49;94221.28;;;13.43;69.63
13407;BME280;6774;48.208;10.766;2023-03-31T12:41:22;94219.28;;;13.50;69.09
13407;BME280;6774;48.208;10.766;2023-03-31T12:44:03;94238.78;;;13.44;69.43
13407;BME280;6774;48.208;10.766;2023-03-31T12:46:58;94241.03;;;13.23;70.96
13407;BME280;6774;48.208;10.766;2023-03-31T12:49:40;94255.56;;;13.09;69.84
13407;BME280;6774;48.208;10.766;2023-03-31T12:52:16;94262.38;;;12.93;71.59
13407;BME280;6774;48.208;10.766;2023-03-31T12:55:00;94275.56;;;12.11;74.08
13407;BME280;6774;48.208;10.766;2023-03-31T12:57:35;94249.56;;;11.36;80.02
13407;BME280;6774;48.208;10.766;2023-03-31T13:00:18;94219.47;;;11.37;78.90
13407;BME280;6774;48.208;10.766;2023-03-31T13:02:46;94228.34;;;11.43;77.37
13407;BME280;6774;48.208;10.766;2023-03-31T13:05:44;94237.13;;;11.97;77.25
13407;BME280;6774;48.208;10.766;2023-03-31T13:11:15;94288.66;;;11.46;78.00
13407;BME280;6774;48.208;10.766;2023-03-31T13:13:45;94299.03;;;10.24;83.08
13407;BME280;6774;48.208;10.766;2023-03-31T13:16:26;94318.19;;;9.75;86.38
13407;BME280;6774;48.208;10.766;2023-03-31T13:18:55;94308.09;;;9.21;85.75
13407;BME280;6774;48.208;10.766;2023-03-31T13:21:24;94306.84;;;9.36;88.03
13407;BME280;6774;48.208;10.766;2023-03-31T13:23:58;94286.75;;;9.42;89.15
13407;BME280;6774;48.208;10.766;2023-03-31T13:26:47;94300.72;;;9.81;90.55
13407;BME280;6774;48.208;10.766;2023-03-31T13:29:20;94272.94;;;10.10;89.56
13407;BME280;6774;48.208;10.766;2023-03-31T13:32:20;94255.44;;;10.65;90.14
13407;BME280;6774;48.208;10.766;2023-03-31T13:34:56;94257.75;;;11.17;89.96
13407;BME280;6774;48.208;10.766;2023-03-31T13:37:58;94237.50;;;11.10;90.09
13407;BME280;6774;48.208;10.766;2023-03-31T13:40:40;94238.69;;;11.45;88.89
13407;BME280;6774;48.208;10.766;2023-03-31T13:43:26;94235.25;;;11.44;87.69
13407;BME280;6774;48.208;10.766;2023-03-31T13:46:12;94236.63;;;11.47;88.56